createdAt,value
2022-11-14T00:01:24.274Z,13.13
2022-11-14T00:03:53.195Z,16.15
2022-11-14T00:06:24.570Z,15.77
2022-11-14T00:08:51.248Z,14.05
2022-11-14T00:11:17.972Z,14.88
2022-11-14T00:13:45.136Z,11.73
2022-11-14T00:16:13.950Z,15.35
2022-11-14T00:18:45.318Z,17.98
2022-11-14T00:21:12.043Z,14.70
2022-11-14T00:23:41.030Z,18.02
2022-11-14T00:26:12.906Z,15.98
2022-11-14T00:28:44.128Z,18.83
2022-11-14T00:31:13.462Z,14.10
2022-11-14T00:33:40.203Z,14.00
2022-11-14T00:36:09.327Z,18.60
2022-11-14T00:38:38.163Z,24.15
2022-11-14T00:41:04.927Z,25.05
2022-11-14T00:43:31.685Z,23.33
2022-11-14T00:45:58.386Z,16.25
2022-11-14T00:48:30.349Z,23.42
2022-11-14T00:50:59.549Z,22.48
2022-11-14T00:53:28.466Z,22.85
2022-11-14T00:55:57.270Z,20.95
2022-11-14T00:58:24.013Z,20.80
2022-11-14T01:00:54.233Z,15.25
2022-11-14T01:03:25.908Z,20.27
2022-11-14T01:05:52.746Z,20.50
2022-11-14T01:08:22.884Z,20.13
2022-11-14T01:10:50.944Z,19.98
2022-11-14T01:13:20.967Z,22.90
2022-11-14T01:15:50.252Z,28.40
2022-11-14T01:18:21.721Z,27.40
2022-11-14T01:20:49.201Z,23.90
2022-11-14T01:23:16.783Z,22.92
2022-11-14T01:25:46.450Z,18.85
2022-11-14T01:28:19.809Z,23.38
2022-11-14T01:30:46.771Z,23.67
2022-11-14T01:33:13.496Z,26.00
2022-11-14T01:35:41.002Z,22.23
2022-11-14T01:38:07.708Z,22.90
2022-11-14T01:40:46.456Z,28.70
2022-11-14T01:43:21.362Z,22.35
2022-11-14T01:46:25.669Z,24.00
2022-11-14T01:49:18.890Z,26.48
2022-11-14T01:52:04.647Z,21.80
2022-11-14T01:54:37.466Z,20.77
2022-11-14T01:57:10.491Z,20.45
2022-11-14T01:59:40.771Z,21.98
2022-11-14T02:02:23.170Z,25.30
2022-11-14T02:05:12.010Z,28.98
2022-11-14T02:07:40.725Z,23.90
2022-11-14T02:10:18.684Z,23.80
2022-11-14T02:12:46.130Z,18.00
2022-11-14T02:15:14.211Z,21.45
2022-11-14T02:17:43.728Z,22.10
2022-11-14T02:20:10.796Z,24.92
2022-11-14T02:22:40.869Z,26.92
2022-11-14T02:25:12.928Z,24.55
2022-11-14T02:30:13.842Z,24.23
2022-11-14T02:33:10.445Z,25.35
2022-11-14T02:35:29.822Z,20.75
2022-11-14T02:38:01.248Z,28.45
2022-11-14T02:40:32.532Z,20.17
2022-11-14T02:43:02.018Z,18.15
2022-11-14T02:45:28.715Z,22.08
2022-11-14T02:47:55.400Z,39.72
2022-11-14T02:50:24.206Z,26.60
2022-11-14T02:52:53.872Z,29.67
2022-11-14T02:55:21.537Z,26.13
2022-11-14T02:57:52.699Z,21.98
2022-11-14T03:00:21.752Z,28.70
2022-11-14T03:02:55.786Z,30.45
2022-11-14T03:05:24.786Z,31.23
2022-11-14T03:07:59.766Z,29.80
2022-11-14T03:10:26.591Z,29.45
2022-11-14T03:12:57.163Z,39.80
2022-11-14T03:15:26.810Z,28.48
2022-11-14T03:17:55.750Z,62.92
2022-11-14T03:20:24.643Z,44.83
2022-11-14T03:22:53.598Z,27.33
2022-11-14T03:25:22.520Z,50.83
2022-11-14T03:27:49.188Z,55.42
2022-11-14T03:30:18.351Z,44.42
2022-11-14T03:32:45.049Z,45.83
2022-11-14T03:35:14.064Z,39.67
2022-11-14T03:37:40.804Z,43.03
2022-11-14T03:40:10.531Z,40.58
2022-11-14T03:42:37.265Z,54.13
2022-11-14T03:45:04.315Z,20.50
2022-11-14T03:47:31.074Z,35.67
2022-11-14T03:49:59.872Z,23.48
2022-11-14T03:52:26.551Z,27.33
2022-11-14T03:54:53.219Z,23.58
2022-11-14T03:57:19.958Z,33.08
2022-11-14T03:59:46.635Z,42.17
2022-11-14T04:02:13.308Z,30.95
2022-11-14T04:04:42.565Z,38.03
2022-11-14T04:07:09.362Z,18.83
2022-11-14T04:09:36.170Z,32.55
2022-11-14T04:12:02.912Z,23.50
2022-11-14T04:14:34.304Z,42.08
2022-11-14T04:17:01.034Z,26.83
2022-11-14T04:19:27.861Z,25.27
2022-11-14T04:21:54.589Z,28.27
2022-11-14T04:24:21.326Z,22.75
2022-11-14T04:26:50.539Z,22.60
2022-11-14T04:29:17.263Z,22.15
2022-11-14T04:31:44.195Z,25.75
2022-11-14T04:34:10.927Z,26.95
2022-11-14T04:36:37.650Z,26.65
2022-11-14T04:39:07.170Z,28.35
2022-11-14T04:41:33.865Z,20.65
2022-11-14T04:44:05.502Z,24.75
2022-11-14T04:46:32.176Z,20.85
2022-11-14T04:49:03.588Z,25.75
2022-11-14T04:51:32.502Z,18.38
2022-11-14T04:54:01.370Z,28.23
2022-11-14T04:56:30.344Z,21.38
2022-11-14T04:59:01.793Z,24.75
2022-11-14T05:01:30.975Z,15.25
2022-11-14T05:04:00.262Z,22.17
2022-11-14T05:06:26.930Z,26.27
2022-11-14T05:08:53.637Z,24.30
2022-11-14T05:11:27.974Z,19.95
2022-11-14T05:13:58.189Z,20.25
2022-11-14T05:16:29.625Z,21.80
2022-11-14T05:19:01.035Z,21.83
2022-11-14T05:21:30.574Z,22.42
2022-11-14T05:23:59.531Z,22.60
2022-11-14T05:26:26.260Z,19.05
2022-11-14T05:28:55.317Z,21.73
2022-11-14T05:31:29.660Z,17.85
2022-11-14T05:33:56.335Z,20.45
2022-11-14T05:36:23.127Z,24.77
2022-11-14T05:38:52.099Z,14.27
2022-11-14T05:41:25.205Z,22.48
2022-11-14T05:43:56.606Z,16.42
2022-11-14T05:46:25.462Z,15.13
2022-11-14T05:48:54.634Z,17.10
2022-11-14T05:51:23.740Z,20.02
2022-11-14T05:53:52.703Z,17.73
2022-11-14T05:56:19.449Z,18.13
2022-11-14T05:58:46.231Z,15.93
2022-11-14T06:01:20.203Z,17.30
2022-11-14T06:03:50.281Z,19.00
2022-11-14T06:06:19.111Z,20.10
2022-11-14T06:08:51.003Z,22.83
2022-11-14T06:11:19.505Z,19.10
2022-11-14T06:13:46.580Z,21.27
2022-11-14T06:16:16.035Z,21.63
2022-11-14T06:18:45.079Z,22.92
2022-11-14T06:21:14.775Z,21.65
2022-11-14T06:23:42.104Z,21.02
2022-11-14T06:26:15.162Z,17.58
2022-11-14T06:28:41.814Z,16.50
2022-11-14T06:31:10.777Z,19.17
2022-11-14T06:33:39.862Z,20.45
2022-11-14T06:36:09.644Z,21.00
2022-11-14T06:38:38.349Z,20.10
2022-11-14T06:41:16.159Z,16.90
2022-11-14T06:43:46.683Z,23.08
2022-11-14T06:46:15.634Z,20.30
2022-11-14T06:48:43.601Z,22.88
2022-11-14T06:51:14.239Z,21.20
2022-11-14T06:53:41.441Z,19.67
2022-11-14T06:56:09.598Z,23.55
2022-11-14T06:58:42.920Z,19.88
2022-11-14T07:01:14.029Z,21.15
2022-11-14T07:03:44.857Z,20.83
2022-11-14T07:06:13.747Z,20.88
2022-11-14T07:08:40.718Z,20.77
2022-11-14T07:11:12.904Z,19.70
2022-11-14T07:13:39.612Z,18.40
2022-11-14T07:16:06.602Z,22.50
2022-11-14T07:18:34.239Z,18.90
2022-11-14T07:21:04.380Z,17.48
2022-11-14T07:23:37.199Z,17.33
2022-11-14T07:26:08.713Z,17.45
2022-11-14T07:28:37.099Z,15.68
2022-11-14T07:31:07.756Z,19.50
2022-11-14T07:33:34.803Z,16.35
2022-11-14T07:36:04.282Z,15.13
2022-11-14T07:38:37.689Z,19.73
2022-11-14T07:41:09.371Z,19.85
2022-11-14T07:43:41.273Z,16.55
2022-11-14T07:46:11.250Z,16.58
2022-11-14T07:48:40.903Z,18.88
2022-11-14T07:51:13.900Z,18.10
2022-11-14T07:53:43.298Z,16.73
2022-11-14T07:56:10.751Z,17.02
2022-11-14T07:58:38.797Z,18.13
2022-11-14T08:01:10.438Z,17.10
2022-11-14T08:03:45.072Z,16.85
2022-11-14T08:06:17.430Z,17.75
2022-11-14T08:08:49.101Z,17.17
2022-11-14T08:11:31.763Z,17.60
2022-11-14T08:14:04.198Z,18.38
2022-11-14T08:16:30.993Z,18.58
2022-11-14T08:18:57.668Z,17.27
2022-11-14T08:21:26.518Z,15.85
2022-11-14T08:23:55.568Z,14.55
2022-11-14T08:26:26.302Z,18.83
2022-11-14T08:28:57.025Z,15.88
2022-11-14T08:31:23.984Z,14.48
2022-11-14T08:33:54.177Z,16.25
2022-11-14T08:36:20.939Z,18.50
2022-11-14T08:38:51.614Z,15.73
2022-11-14T08:41:20.853Z,13.88
2022-11-14T08:43:50.828Z,16.92
2022-11-14T08:46:17.589Z,13.43
2022-11-14T08:48:44.264Z,12.23
2022-11-14T08:51:13.289Z,14.13
2022-11-14T08:53:40.091Z,12.90
2022-11-14T08:56:10.458Z,12.27
2022-11-14T08:58:39.755Z,10.57
2022-11-14T09:01:07.581Z,12.05
2022-11-14T09:03:34.876Z,11.20
2022-11-14T09:06:04.992Z,10.88
2022-11-14T09:08:38.023Z,14.57
2022-11-14T09:11:09.955Z,13.80
2022-11-14T09:13:39.481Z,12.80
2022-11-14T09:16:06.318Z,14.70
2022-11-14T09:18:33.358Z,12.70
2022-11-14T09:21:03.439Z,15.25
2022-11-14T09:23:31.991Z,14.85
2022-11-14T09:26:05.230Z,13.90
2022-11-14T09:28:32.474Z,16.25
2022-11-14T09:31:11.031Z,13.50
2022-11-14T09:33:40.466Z,12.32
2022-11-14T09:36:17.163Z,11.35
2022-11-14T09:38:49.636Z,13.52
2022-11-14T09:41:34.350Z,11.60
2022-11-14T09:44:25.292Z,11.85
2022-11-14T09:47:01.799Z,10.90
2022-11-14T09:49:49.413Z,12.75
2022-11-14T09:52:33.442Z,12.63
2022-11-14T09:55:10.880Z,13.20
2022-11-14T09:57:42.768Z,12.50
2022-11-14T10:00:25.344Z,10.52
2022-11-14T10:03:00.999Z,13.13
2022-11-14T10:06:08.580Z,17.88
2022-11-14T10:08:46.908Z,13.35
2022-11-14T10:11:18.731Z,11.93
2022-11-14T10:14:00.512Z,12.10
2022-11-14T10:16:36.715Z,10.57
2022-11-14T10:19:44.520Z,14.68
2022-11-14T10:22:26.928Z,12.82
2022-11-14T10:25:32.265Z,11.15
2022-11-14T10:28:05.182Z,13.93
2022-11-14T10:30:41.627Z,12.70
2022-11-14T10:33:30.392Z,12.13
2022-11-14T10:36:17.803Z,13.15
2022-11-14T10:38:52.740Z,11.65
2022-11-14T10:41:41.872Z,11.02
2022-11-14T10:44:16.940Z,16.38
2022-11-14T10:46:52.267Z,19.10
2022-11-14T10:49:24.003Z,13.05
2022-11-14T10:51:56.987Z,16.25
2022-11-14T10:55:12.820Z,12.15
2022-11-14T10:57:42.469Z,12.88
2022-11-14T11:00:22.905Z,13.07
2022-11-14T11:02:53.512Z,12.77
2022-11-14T11:05:24.077Z,11.82
2022-11-14T11:08:36.257Z,12.73
2022-11-14T11:11:20.300Z,15.35
2022-11-14T11:14:02.557Z,10.95
2022-11-14T11:19:34.106Z,11.30
2022-11-14T11:22:02.983Z,12.55
2022-11-14T11:24:36.502Z,11.27
2022-11-14T11:27:23.411Z,12.73
2022-11-14T11:30:04.178Z,15.00
2022-11-14T11:32:30.918Z,13.75
2022-11-14T11:35:09.484Z,14.65
2022-11-14T11:37:44.404Z,16.70
2022-11-14T11:40:23.875Z,14.27
2022-11-14T11:46:04.755Z,8.07
2022-11-14T11:48:40.183Z,8.30
2022-11-14T11:51:16.297Z,7.45
2022-11-14T11:53:50.674Z,9.45
2022-11-14T11:56:24.997Z,8.73
2022-11-14T11:59:01.293Z,9.57
2022-11-14T12:01:28.070Z,6.65
2022-11-14T12:03:55.045Z,8.25
2022-11-14T12:06:29.784Z,4.70
2022-11-14T12:08:59.325Z,3.63
2022-11-14T12:11:32.118Z,6.22
2022-11-14T12:14:01.514Z,5.28
2022-11-14T12:16:52.834Z,8.32
2022-11-14T12:19:40.787Z,6.22
2022-11-14T12:22:36.011Z,4.15
2022-11-14T12:25:20.332Z,7.30
2022-11-14T12:28:17.810Z,7.07
2022-11-14T12:30:53.820Z,3.97
2022-11-14T12:33:31.325Z,9.18
2022-11-14T12:36:04.339Z,9.52
2022-11-14T12:38:45.415Z,3.42
2022-11-14T12:41:15.275Z,4.82
2022-11-14T12:43:44.924Z,5.25
2022-11-14T12:46:15.121Z,7.68
2022-11-14T12:48:46.117Z,2.55
2022-11-14T12:51:27.429Z,4.82
2022-11-14T12:53:56.092Z,4.37
2022-11-14T12:56:33.818Z,3.08
2022-11-14T12:59:24.668Z,1.85
2022-11-14T13:01:51.567Z,1.73
2022-11-14T13:04:39.795Z,1.90
2022-11-14T13:07:32.961Z,2.00
2022-11-14T13:10:14.361Z,2.42
2022-11-14T13:13:25.568Z,2.78
2022-11-14T13:16:13.499Z,2.83
2022-11-14T13:19:34.342Z,2.95
2022-11-14T13:22:14.088Z,2.78
2022-11-14T13:25:01.977Z,3.53
2022-11-14T13:28:06.031Z,1.75
2022-11-14T13:31:05.155Z,3.72
2022-11-14T13:34:02.175Z,2.90
2022-11-14T13:36:46.002Z,4.70
2022-11-14T13:39:23.709Z,3.95
2022-11-14T13:42:05.165Z,2.10
2022-11-14T13:44:40.641Z,2.80
2022-11-14T13:47:38.503Z,3.70
2022-11-14T13:50:12.341Z,2.40
2022-11-14T13:52:48.812Z,1.48
2022-11-14T13:56:04.419Z,4.40
2022-11-14T13:58:55.809Z,1.92
2022-11-14T14:01:28.958Z,2.77
2022-11-14T14:04:19.147Z,1.92
2022-11-14T14:07:10.391Z,4.30
2022-11-14T14:10:08.996Z,1.92
2022-11-14T14:12:44.384Z,1.92
2022-11-14T14:15:38.916Z,3.45
2022-11-14T14:18:17.846Z,1.60
2022-11-14T14:20:58.594Z,2.75
2022-11-14T14:23:53.312Z,2.38
2022-11-14T14:27:01.367Z,2.30
2022-11-14T14:30:03.333Z,1.52
2022-11-14T14:32:30.235Z,6.70
2022-11-14T14:35:01.459Z,10.45
2022-11-14T14:37:32.865Z,6.97
2022-11-14T14:40:00.910Z,4.20
2022-11-14T14:42:47.081Z,7.22
2022-11-14T14:45:19.806Z,5.68
2022-11-14T14:48:02.362Z,4.80
2022-11-14T14:50:35.414Z,8.93
2022-11-14T14:53:03.734Z,11.10
2022-11-14T14:55:37.139Z,8.50
2022-11-14T14:58:27.102Z,13.18
2022-11-14T15:01:06.354Z,3.80
2022-11-14T15:03:37.805Z,2.38
2022-11-14T15:06:29.881Z,4.55
2022-11-14T15:09:00.133Z,4.50
2022-11-14T15:11:32.527Z,2.40
2022-11-14T15:14:04.883Z,2.60
2022-11-14T15:18:59.129Z,2.85
2022-11-14T15:21:35.892Z,6.80
2022-11-14T15:24:17.786Z,4.45
2022-11-14T15:26:46.464Z,3.42
2022-11-14T15:29:25.610Z,3.55
2022-11-14T15:32:02.741Z,4.85
2022-11-14T15:34:36.787Z,4.80
2022-11-14T15:37:13.747Z,6.25
2022-11-14T15:39:41.992Z,4.25
2022-11-14T15:42:23.424Z,3.38
2022-11-14T15:44:50.992Z,2.83
2022-11-14T15:47:44.108Z,4.00
2022-11-14T15:50:14.021Z,6.03
2022-11-14T15:52:48.791Z,4.95
2022-11-14T15:55:18.652Z,2.92
2022-11-14T15:57:55.846Z,4.85
2022-11-14T16:00:33.627Z,5.05
2022-11-14T16:03:02.733Z,1.88
2022-11-14T16:05:30.477Z,2.30
2022-11-14T16:07:58.185Z,2.80
2022-11-14T16:10:27.487Z,2.75
2022-11-14T16:12:54.456Z,2.85
2022-11-14T16:15:26.463Z,3.30
2022-11-14T16:20:37.885Z,2.20
2022-11-14T16:23:07.145Z,3.35
2022-11-14T16:25:36.085Z,3.90
2022-11-14T16:28:04.908Z,2.03
2022-11-14T16:30:36.384Z,3.28
2022-11-14T16:33:03.097Z,2.95
2022-11-14T16:35:32.148Z,2.63
2022-11-14T16:38:01.284Z,2.38
2022-11-14T16:40:28.220Z,3.13
2022-11-14T16:42:57.747Z,2.60
2022-11-14T16:45:28.308Z,2.30
2022-11-14T16:47:55.044Z,1.60
2022-11-14T16:50:24.496Z,4.50
2022-11-14T16:52:51.179Z,3.05
2022-11-14T16:55:20.316Z,2.47
2022-11-14T16:57:46.990Z,5.05
2022-11-14T17:00:16.817Z,3.55
2022-11-14T17:02:48.196Z,2.92
2022-11-14T17:05:15.053Z,4.55
2022-11-14T17:07:43.981Z,3.05
2022-11-14T17:10:13.027Z,3.03
2022-11-14T17:12:39.764Z,5.70
2022-11-14T17:15:06.927Z,5.72
2022-11-14T17:17:37.960Z,6.50
2022-11-14T17:20:07.324Z,3.88
2022-11-14T17:22:34.086Z,5.50
2022-11-14T17:25:00.814Z,6.25
2022-11-14T17:27:29.812Z,3.88
2022-11-14T17:30:01.154Z,2.80
2022-11-14T17:32:30.591Z,3.53
2022-11-14T17:35:01.613Z,2.83
2022-11-14T17:37:28.323Z,3.00
2022-11-14T17:39:55.029Z,4.40
2022-11-14T17:42:26.459Z,2.58
2022-11-14T17:44:53.260Z,2.63
2022-11-14T17:47:20.532Z,4.43
2022-11-14T17:49:47.192Z,4.57
2022-11-14T17:52:18.764Z,3.38
2022-11-14T17:54:47.678Z,6.07
2022-11-14T17:57:17.436Z,5.38
2022-11-14T17:59:44.154Z,5.18
2022-11-14T18:02:17.564Z,6.50
2022-11-14T18:04:47.971Z,7.18
2022-11-14T18:07:15.662Z,9.32
2022-11-14T18:09:42.498Z,6.30
2022-11-14T18:12:09.204Z,5.72
2022-11-14T18:14:38.518Z,6.60
2022-11-14T18:17:12.785Z,5.05
2022-11-14T18:19:40.199Z,3.15
2022-11-14T18:22:06.849Z,2.83
2022-11-14T18:24:33.549Z,3.95
2022-11-14T18:27:00.360Z,3.83
2022-11-14T18:29:28.358Z,3.40
2022-11-14T18:31:57.649Z,4.70
2022-11-14T18:34:24.407Z,7.47
2022-11-14T18:36:51.083Z,7.70
2022-11-14T18:39:17.834Z,9.85
2022-11-14T18:41:44.570Z,6.75
2022-11-14T18:44:13.735Z,5.25
2022-11-14T18:46:42.927Z,4.13
2022-11-14T18:49:12.423Z,3.28
2022-11-14T18:51:42.092Z,2.40
2022-11-14T18:54:16.217Z,3.65
2022-11-14T18:56:45.276Z,2.97
2022-11-14T18:59:14.904Z,6.63
2022-11-14T19:01:43.886Z,7.13
2022-11-14T19:04:17.186Z,6.70
2022-11-14T19:06:46.223Z,3.63
2022-11-14T19:09:22.140Z,7.88
2022-11-14T19:12:10.299Z,7.07
2022-11-14T19:14:39.352Z,4.65
2022-11-14T19:17:07.146Z,4.10
2022-11-14T19:19:33.933Z,3.20
2022-11-14T19:22:03.993Z,2.75
2022-11-14T19:24:30.779Z,7.63
2022-11-14T19:27:02.448Z,3.35
2022-11-14T19:29:31.682Z,2.45
2022-11-14T19:32:00.521Z,3.70
2022-11-14T19:34:27.319Z,3.72
2022-11-14T19:37:02.216Z,5.35
2022-11-14T19:39:32.962Z,3.53
2022-11-14T19:41:59.781Z,4.05
2022-11-14T19:44:26.720Z,5.00
2022-11-14T19:46:53.662Z,2.65
2022-11-14T19:49:20.419Z,3.97
2022-11-14T19:51:51.605Z,3.92
2022-11-14T19:54:22.961Z,4.00
2022-11-14T19:56:49.710Z,7.35
2022-11-14T19:59:24.004Z,4.45
2022-11-14T20:01:55.676Z,3.22
2022-11-14T20:04:29.329Z,3.38
2022-11-14T20:06:56.400Z,3.47
2022-11-14T20:09:25.554Z,3.92
2022-11-14T20:11:55.014Z,4.63
2022-11-14T20:14:22.014Z,2.47
2022-11-14T20:16:50.517Z,3.45
2022-11-14T20:19:19.814Z,3.90
2022-11-14T20:21:48.734Z,6.78
2022-11-14T20:24:21.459Z,2.28
2022-11-14T20:26:48.685Z,5.00
2022-11-14T20:29:17.891Z,2.58
2022-11-14T20:31:44.745Z,2.28
2022-11-14T20:34:18.524Z,3.13
2022-11-14T20:37:09.820Z,3.28
2022-11-14T20:39:36.268Z,4.97
2022-11-14T20:42:05.619Z,2.58
2022-11-14T20:44:32.413Z,3.15
2022-11-14T20:47:07.202Z,4.43
2022-11-14T20:49:37.908Z,4.03
2022-11-14T20:52:07.658Z,2.70
2022-11-14T20:54:34.393Z,3.63
2022-11-14T20:57:03.823Z,4.47
2022-11-14T20:59:33.228Z,2.95
2022-11-14T21:02:00.308Z,2.65
2022-11-14T21:04:27.175Z,2.72
2022-11-14T21:06:56.460Z,4.85
2022-11-14T21:09:27.994Z,4.00
2022-11-14T21:11:59.780Z,5.55
2022-11-14T21:14:31.227Z,5.53
2022-11-14T21:16:58.104Z,3.03
2022-11-14T21:19:32.189Z,3.33
2022-11-14T21:21:58.933Z,2.55
2022-11-14T21:24:28.595Z,3.97
2022-11-14T21:26:55.381Z,3.53
2022-11-14T21:29:22.261Z,6.75
2022-11-14T21:31:51.232Z,2.90
2022-11-14T21:34:21.537Z,4.53
2022-11-14T21:36:48.341Z,4.85
2022-11-14T21:39:18.682Z,3.30
2022-11-14T21:41:48.367Z,3.75
2022-11-14T21:44:21.454Z,4.32
2022-11-14T21:46:53.074Z,3.00
2022-11-14T21:49:19.757Z,4.88
2022-11-14T21:51:48.448Z,4.00
2022-11-14T21:54:17.749Z,5.40
2022-11-14T21:56:44.500Z,3.90
2022-11-14T21:59:21.528Z,5.32
2022-11-14T22:02:08.758Z,3.55
2022-11-14T22:04:38.147Z,7.82
2022-11-14T22:07:06.730Z,3.47
2022-11-14T22:09:43.978Z,3.38
2022-11-14T22:12:16.567Z,3.95
2022-11-14T22:14:47.951Z,3.20
2022-11-14T22:17:16.888Z,5.63
2022-11-14T22:19:48.334Z,2.42
2022-11-14T22:22:14.992Z,3.45
2022-11-14T22:24:44.038Z,2.97
2022-11-14T22:27:12.936Z,3.50
2022-11-14T22:29:41.899Z,4.93
2022-11-14T22:32:10.711Z,4.95
2022-11-14T22:34:37.402Z,4.75
2022-11-14T22:37:08.552Z,5.05
2022-11-14T22:39:37.557Z,4.73
2022-11-14T22:42:06.449Z,3.63
2022-11-14T22:44:35.324Z,5.18
2022-11-14T22:47:02.496Z,5.28
2022-11-14T22:49:31.379Z,6.95
2022-11-14T22:52:05.034Z,2.88
2022-11-14T22:54:31.690Z,4.50
2022-11-14T22:56:58.393Z,3.38
2022-11-14T22:59:27.451Z,4.97
2022-11-14T23:01:55.305Z,4.47
2022-11-14T23:04:21.992Z,4.13
2022-11-14T23:06:51.012Z,4.93
2022-11-14T23:09:17.725Z,3.72
2022-11-14T23:11:46.876Z,4.35
2022-11-14T23:14:14.411Z,5.10
2022-11-14T23:16:41.199Z,4.13
2022-11-14T23:19:10.326Z,3.42
2022-11-14T23:21:39.710Z,4.20
2022-11-14T23:24:11.014Z,5.75
2022-11-14T23:26:40.193Z,5.18
2022-11-14T23:29:06.890Z,4.32
2022-11-14T23:31:36.059Z,4.47
2022-11-14T23:34:02.787Z,4.40
2022-11-14T23:36:31.945Z,6.05
2022-11-14T23:39:03.382Z,4.88
2022-11-14T23:41:32.353Z,3.25
2022-11-14T23:44:01.381Z,4.18
2022-11-14T23:46:32.801Z,4.65
2022-11-14T23:49:04.132Z,4.63
2022-11-14T23:51:30.907Z,5.35
2022-11-14T23:53:57.559Z,3.95
2022-11-14T23:56:24.373Z,6.90
2022-11-14T23:58:51.053Z,4.30
